createdAt,value
2023-04-12T00:00:57.604Z,3.80
2023-04-12T00:05:57.520Z,3.85
2023-04-12T00:10:57.467Z,3.86
2023-04-12T00:15:57.453Z,3.80
2023-04-12T00:20:57.331Z,3.64
2023-04-12T00:25:57.267Z,3.42
2023-04-12T00:30:57.242Z,3.36
2023-04-12T00:35:57.228Z,3.42
2023-04-12T00:40:57.086Z,3.34
2023-04-12T00:45:57.040Z,3.31
2023-04-12T00:50:56.977Z,3.28
2023-04-12T00:55:56.892Z,3.20
2023-04-12T01:00:56.895Z,3.18
2023-04-12T01:05:56.762Z,3.03
2023-04-12T01:10:56.694Z,2.87
2023-04-12T01:15:56.664Z,2.88
2023-04-12T01:20:56.560Z,2.79
2023-04-12T01:25:56.501Z,2.69
2023-04-12T01:30:56.443Z,2.56
2023-04-12T01:35:56.387Z,2.56
2023-04-12T01:40:56.300Z,2.35
2023-04-12T01:45:56.257Z,2.37
2023-04-12T01:50:56.169Z,2.33
2023-04-12T01:55:56.098Z,2.37
2023-04-12T02:00:56.087Z,2.63
2023-04-12T02:05:55.982Z,2.59
2023-04-12T02:10:55.906Z,2.45
2023-04-12T02:15:55.838Z,2.23
2023-04-12T02:20:55.762Z,2.26
2023-04-12T02:25:55.709Z,2.15
2023-04-12T02:30:55.652Z,2.27
2023-04-12T02:35:55.587Z,2.30
2023-04-12T02:40:55.526Z,2.19
2023-04-12T02:45:55.481Z,2.22
2023-04-12T02:50:55.382Z,2.22
2023-04-12T02:55:55.324Z,2.23
2023-04-12T03:00:55.227Z,2.48
2023-04-12T03:05:55.295Z,2.41
2023-04-12T03:10:55.107Z,2.33
2023-04-12T03:15:55.068Z,2.26
2023-04-12T03:20:54.970Z,2.28
2023-04-12T03:25:54.913Z,2.13
2023-04-12T03:30:54.839Z,2.06
2023-04-12T03:35:54.808Z,2.02
2023-04-12T03:40:54.687Z,1.97
2023-04-12T03:45:54.632Z,1.99
2023-04-12T03:50:54.589Z,1.90
2023-04-12T03:55:54.510Z,1.78
2023-04-12T04:00:54.446Z,1.82
2023-04-12T04:05:54.390Z,1.91
2023-04-12T04:10:54.305Z,1.87
2023-04-12T04:15:54.277Z,1.79
2023-04-12T04:20:54.175Z,1.69
2023-04-12T04:25:54.121Z,1.85
2023-04-12T04:30:54.047Z,2.01
2023-04-12T04:35:54.020Z,2.20
2023-04-12T04:40:53.968Z,2.58
2023-04-12T04:45:53.878Z,3.10
2023-04-12T04:50:53.782Z,3.94
2023-04-12T04:55:53.721Z,4.99
2023-04-12T05:00:53.911Z,6.07
2023-04-12T05:05:53.620Z,6.18
2023-04-12T05:10:53.528Z,6.91
2023-04-12T05:15:53.491Z,8.29
2023-04-12T05:20:53.418Z,9.20
2023-04-12T05:25:53.322Z,10.46
2023-04-12T05:30:53.302Z,11.39
2023-04-12T05:35:53.259Z,12.52
2023-04-12T05:40:53.119Z,13.25
2023-04-12T05:45:53.265Z,13.79
2023-04-12T05:50:53.014Z,14.39
2023-04-12T05:55:52.956Z,15.21
2023-04-12T06:00:52.862Z,14.60
2023-04-12T06:05:52.831Z,14.62
2023-04-12T06:10:52.724Z,14.49
2023-04-12T06:15:52.742Z,14.54
2023-04-12T06:20:52.592Z,14.52
2023-04-12T06:25:52.523Z,14.49
2023-04-12T06:30:52.456Z,14.69
2023-04-12T06:35:52.429Z,15.13
2023-04-12T06:40:52.325Z,15.15
2023-04-12T06:45:52.260Z,15.61
2023-04-12T06:50:52.193Z,15.74
2023-04-12T06:55:52.153Z,16.11
2023-04-12T07:00:52.149Z,16.22
2023-04-12T07:05:52.008Z,16.60
2023-04-12T07:10:51.949Z,16.52
2023-04-12T07:15:51.887Z,16.59
2023-04-12T07:20:51.853Z,16.37
2023-04-12T07:25:51.760Z,16.63
2023-04-12T07:30:51.679Z,16.55
2023-04-12T07:35:51.667Z,16.80
2023-04-12T07:40:51.559Z,16.78
2023-04-12T07:45:51.508Z,16.75
2023-04-12T07:50:51.494Z,16.42
2023-04-12T07:55:51.365Z,16.98
2023-04-12T08:00:51.296Z,16.95
2023-04-12T08:05:51.299Z,16.56
2023-04-12T08:10:51.168Z,16.06
2023-04-12T08:15:51.127Z,16.27
2023-04-12T08:20:51.037Z,16.50
2023-04-12T08:25:50.954Z,16.25
2023-04-12T08:30:50.964Z,16.26
2023-04-12T08:35:50.857Z,16.22
2023-04-12T08:40:50.766Z,16.07
2023-04-12T08:45:50.706Z,15.89
2023-04-12T08:50:50.759Z,15.88
2023-04-12T08:55:50.566Z,15.68
2023-04-12T09:00:50.496Z,15.61
2023-04-12T09:05:50.427Z,15.26
2023-04-12T09:10:50.362Z,14.81
2023-04-12T09:15:50.296Z,14.94
2023-04-12T09:20:50.218Z,14.90
2023-04-12T09:25:50.170Z,14.81
2023-04-12T09:30:50.089Z,15.13
2023-04-12T09:35:50.114Z,15.20
2023-04-12T09:40:49.960Z,15.27
2023-04-12T09:45:49.954Z,15.31
2023-04-12T09:50:49.865Z,15.15
2023-04-12T09:55:49.753Z,15.06
2023-04-12T10:00:49.697Z,15.19
2023-04-12T10:05:49.624Z,14.99
2023-04-12T10:10:49.573Z,14.71
2023-04-12T10:15:49.579Z,15.01
2023-04-12T10:20:49.413Z,15.03
2023-04-12T10:25:49.396Z,15.09
2023-04-12T10:30:49.314Z,15.46
2023-04-12T10:35:49.269Z,16.00
2023-04-12T10:40:49.149Z,15.97
2023-04-12T10:45:49.123Z,15.75
2023-04-12T10:50:49.107Z,15.79
2023-04-12T10:55:48.972Z,15.49
2023-04-12T11:00:48.998Z,15.38
2023-04-12T11:05:48.915Z,15.35
2023-04-12T11:10:48.791Z,15.13
2023-04-12T11:15:48.704Z,15.41
2023-04-12T11:20:48.644Z,15.26
2023-04-12T11:25:48.587Z,15.23
2023-04-12T11:30:48.496Z,15.06
2023-04-12T11:35:48.430Z,15.28
2023-04-12T11:40:48.350Z,15.19
2023-04-12T11:45:48.305Z,14.98
2023-04-12T11:50:54.306Z,15.15
2023-04-12T11:55:49.173Z,15.27
2023-04-12T12:00:48.094Z,15.15
2023-04-12T12:05:48.433Z,15.49
2023-04-12T12:11:06.441Z,15.39
2023-04-12T12:15:48.914Z,15.36
2023-04-12T12:20:47.835Z,15.48
2023-04-12T12:25:47.762Z,15.75
2023-04-12T12:30:47.704Z,16.49
2023-04-12T12:35:47.678Z,17.17
2023-04-12T12:40:47.576Z,17.35
2023-04-12T12:45:47.493Z,17.32
2023-04-12T12:50:47.426Z,17.23
2023-04-12T12:55:47.375Z,17.25
2023-04-12T13:00:47.290Z,17.18
2023-04-12T13:05:47.258Z,16.92
2023-04-12T13:10:47.177Z,16.70
2023-04-12T13:15:47.097Z,16.73
2023-04-12T13:20:47.033Z,17.41
2023-04-12T13:25:47.012Z,17.50
2023-04-12T13:30:46.893Z,17.73
2023-04-12T13:35:46.846Z,17.23
2023-04-12T13:40:46.770Z,17.14
2023-04-12T13:45:46.769Z,16.95
2023-04-12T13:50:48.906Z,16.73
2023-04-12T13:55:46.615Z,16.37
2023-04-12T14:00:46.563Z,16.25
2023-04-12T14:05:46.436Z,16.18
2023-04-12T14:10:46.403Z,16.12
2023-04-12T14:15:46.299Z,16.18
2023-04-12T14:20:46.229Z,16.18
2023-04-12T14:25:46.171Z,16.04
2023-04-12T14:30:46.125Z,15.61
2023-04-12T14:35:46.069Z,15.23
2023-04-12T14:40:45.959Z,14.95
2023-04-12T14:45:45.907Z,14.75
2023-04-12T14:50:45.835Z,14.39
2023-04-12T14:55:45.779Z,14.17
2023-04-12T15:00:46.248Z,14.02
2023-04-12T15:05:45.639Z,13.71
2023-04-12T15:10:45.569Z,13.27
2023-04-12T15:15:45.491Z,13.20
2023-04-12T15:20:45.429Z,13.20
2023-04-12T15:25:45.359Z,13.17
2023-04-12T15:30:45.289Z,12.92
2023-04-12T15:35:45.233Z,12.78
2023-04-12T15:40:45.156Z,12.66
2023-04-12T15:45:45.142Z,12.56
2023-04-12T15:50:45.029Z,12.51
2023-04-12T15:55:44.987Z,12.59
2023-04-12T16:00:44.891Z,12.67
2023-04-12T16:05:44.831Z,12.79
2023-04-12T16:10:44.757Z,12.81
2023-04-12T16:15:44.775Z,12.75
2023-04-12T16:20:44.630Z,12.64
2023-04-12T16:25:44.571Z,12.56
2023-04-12T16:30:44.559Z,12.74
2023-04-12T16:35:44.432Z,12.92
2023-04-12T16:40:44.363Z,12.95
2023-04-12T16:45:44.292Z,12.92
2023-04-12T16:50:44.229Z,12.84
2023-04-12T16:55:44.174Z,12.74
2023-04-12T17:00:44.100Z,12.66
2023-04-12T17:05:44.020Z,12.56
2023-04-12T17:10:43.951Z,13.20
2023-04-12T17:15:43.981Z,14.88
2023-04-12T17:20:43.816Z,15.78
2023-04-12T17:25:43.742Z,16.20
2023-04-12T17:30:43.690Z,16.03
2023-04-12T17:35:43.626Z,16.09
2023-04-12T17:40:43.556Z,16.04
2023-04-12T17:45:43.489Z,16.03
2023-04-12T17:50:43.420Z,16.23
2023-04-12T17:55:43.369Z,16.31
2023-04-12T18:00:43.292Z,15.66
2023-04-12T18:05:43.233Z,14.44
2023-04-12T18:10:43.166Z,13.67
2023-04-12T18:15:43.118Z,13.33
2023-04-12T18:20:43.070Z,13.24
2023-04-12T18:25:42.978Z,13.00
2023-04-12T18:30:42.890Z,12.95
2023-04-12T18:35:42.839Z,12.93
2023-04-12T18:40:42.753Z,12.82
2023-04-12T18:45:42.692Z,12.64
2023-04-12T18:50:42.628Z,12.51
2023-04-12T18:55:42.558Z,12.33
2023-04-12T19:00:42.520Z,12.24
2023-04-12T19:05:42.432Z,12.19
2023-04-12T19:10:42.355Z,12.16
2023-04-12T19:15:42.326Z,12.11
2023-04-12T19:20:42.219Z,12.02
2023-04-12T19:25:42.156Z,11.87
2023-04-12T19:30:42.076Z,11.89
2023-04-12T19:35:42.033Z,11.90
2023-04-12T19:40:41.952Z,11.97
2023-04-12T19:45:41.912Z,12.04
2023-04-12T19:50:41.819Z,12.06
2023-04-12T19:55:41.743Z,12.11
2023-04-12T20:00:41.673Z,12.05
2023-04-12T20:05:41.608Z,11.93
2023-04-12T20:10:41.535Z,11.87
2023-04-12T20:15:41.473Z,11.90
2023-04-12T20:20:41.394Z,11.90
2023-04-12T20:25:41.358Z,11.83
2023-04-12T20:30:41.330Z,11.89
2023-04-12T20:35:41.202Z,12.02
2023-04-12T20:40:41.123Z,12.09
2023-04-12T20:45:41.062Z,12.11
2023-04-12T20:50:40.992Z,12.12
2023-04-12T20:55:40.978Z,12.19
2023-04-12T21:00:40.846Z,12.21
2023-04-12T21:05:40.886Z,12.19
2023-04-12T21:10:40.729Z,12.21
2023-04-12T21:15:40.779Z,12.27
2023-04-12T21:20:40.596Z,12.24
2023-04-12T21:25:40.534Z,12.12
2023-04-12T21:30:40.461Z,12.09
2023-04-12T21:35:40.656Z,12.16
2023-04-12T21:40:40.320Z,12.23
2023-04-12T21:45:40.287Z,12.24
2023-04-12T21:50:40.194Z,12.23
2023-04-12T21:55:40.162Z,12.24
2023-04-12T22:00:40.160Z,12.24
2023-04-12T22:05:40.004Z,12.19
2023-04-12T22:10:39.925Z,12.16
2023-04-12T22:15:39.863Z,12.11
2023-04-12T22:20:39.817Z,11.97
2023-04-12T22:25:39.728Z,11.97
2023-04-12T22:30:39.858Z,11.90
2023-04-12T22:35:39.600Z,11.85
2023-04-12T22:40:39.534Z,11.72
2023-04-12T22:45:39.471Z,11.74
2023-04-12T22:50:39.406Z,11.74
2023-04-12T22:55:39.343Z,11.70
2023-04-12T23:00:39.305Z,11.71
2023-04-12T23:05:39.203Z,11.74
2023-04-12T23:10:39.136Z,11.86
2023-04-12T23:15:39.098Z,11.94
2023-04-12T23:20:39.026Z,12.06
2023-04-12T23:25:39.502Z,12.19
2023-04-12T23:30:38.882Z,12.27
2023-04-12T23:35:38.812Z,12.44
2023-04-12T23:40:38.737Z,12.60
2023-04-12T23:45:38.682Z,12.56
2023-04-12T23:50:38.627Z,12.56
2023-04-12T23:55:38.558Z,12.45
